sensor_id;sensor_type;location;lat;lon;timestamp;temperature;humidity
8914;DHT22;4492;48.736;9.092;2023-02-12T00:01:32;3.80;99.90
8914;DHT22;4492;48.736;9.092;2023-02-12T00:03:58;3.90;99.90
8914;DHT22;4492;48.736;9.092;2023-02-12T00:06:24;3.90;99.90
8914;DHT22;4492;48.736;9.092;2023-02-12T00:08:52;3.90;99.90
8914;DHT22;4492;48.736;9.092;2023-02-12T00:11:23;3.90;99.90
8914;DHT22;4492;48.736;9.092;2023-02-12T00:13:50;3.90;99.90
8914;DHT22;4492;48.736;9.092;2023-02-12T00:16:19;3.90;99.90
8914;DHT22;4492;48.736;9.092;2023-02-12T00:18:45;3.90;99.90
8914;DHT22;4492;48.736;9.092;2023-02-12T00:21:11;3.90;99.90
8914;DHT22;4492;48.736;9.092;2023-02-12T00:23:38;3.90;99.90
8914;DHT22;4492;48.736;9.092;2023-02-12T00:26:07;3.90;99.90
8914;DHT22;4492;48.736;9.092;2023-02-12T00:28:32;3.90;99.90
8914;DHT22;4492;48.736;9.092;2023-02-12T00:31:10;3.90;99.90
8914;DHT22;4492;48.736;9.092;2023-02-12T00:33:36;3.90;99.90
8914;DHT22;4492;48.736;9.092;2023-02-12T00:36:02;3.80;99.90
8914;DHT22;4492;48.736;9.092;2023-02-12T00:38:27;3.90;99.90
8914;DHT22;4492;48.736;9.092;2023-02-12T00:40:53;3.90;99.90
8914;DHT22;4492;48.736;9.092;2023-02-12T00:43:18;3.80;99.90
8914;DHT22;4492;48.736;9.092;2023-02-12T00:45:45;3.80;99.90
8914;DHT22;4492;48.736;9.092;2023-02-12T00:48:12;3.80;99.90
8914;DHT22;4492;48.736;9.092;2023-02-12T00:50:37;3.80;99.90
8914;DHT22;4492;48.736;9.092;2023-02-12T00:53:05;3.80;99.90
8914;DHT22;4492;48.736;9.092;2023-02-12T00:55:32;3.80;99.90
8914;DHT22;4492;48.736;9.092;2023-02-12T00:57:58;3.80;99.90
8914;DHT22;4492;48.736;9.092;2023-02-12T01:00:24;3.80;99.90
8914;DHT22;4492;48.736;9.092;2023-02-12T01:02:50;3.80;99.90
8914;DHT22;4492;48.736;9.092;2023-02-12T01:05:15;3.80;99.90
8914;DHT22;4492;48.736;9.092;2023-02-12T01:07:41;3.80;99.90
8914;DHT22;4492;48.736;9.092;2023-02-12T01:10:07;3.80;99.90
8914;DHT22;4492;48.736;9.092;2023-02-12T01:12:34;3.80;99.90
8914;DHT22;4492;48.736;9.092;2023-02-12T01:14:59;3.70;99.90
8914;DHT22;4492;48.736;9.092;2023-02-12T01:17:25;3.70;99.90
8914;DHT22;4492;48.736;9.092;2023-02-12T01:19:55;3.70;99.90
8914;DHT22;4492;48.736;9.092;2023-02-12T01:22:21;3.70;99.90
8914;DHT22;4492;48.736;9.092;2023-02-12T01:24:46;3.70;99.90
8914;DHT22;4492;48.736;9.092;2023-02-12T01:27:12;3.60;99.90
8914;DHT22;4492;48.736;9.092;2023-02-12T01:29:37;3.70;99.90
8914;DHT22;4492;48.736;9.092;2023-02-12T01:32:04;3.70;99.90
8914;DHT22;4492;48.736;9.092;2023-02-12T01:34:29;3.70;99.90
8914;DHT22;4492;48.736;9.092;2023-02-12T01:36:55;3.70;99.90
8914;DHT22;4492;48.736;9.092;2023-02-12T01:39:20;3.70;99.90
8914;DHT22;4492;48.736;9.092;2023-02-12T01:41:47;3.70;99.90
8914;DHT22;4492;48.736;9.092;2023-02-12T01:44:20;3.70;99.90
8914;DHT22;4492;48.736;9.092;2023-02-12T01:46:55;3.70;99.90
8914;DHT22;4492;48.736;9.092;2023-02-12T01:52:06;3.60;99.90
8914;DHT22;4492;48.736;9.092;2023-02-12T01:54:34;3.60;99.90
8914;DHT22;4492;48.736;9.092;2023-02-12T01:57:01;3.60;99.90
8914;DHT22;4492;48.736;9.092;2023-02-12T01:59:28;3.60;99.90
8914;DHT22;4492;48.736;9.092;2023-02-12T02:01:55;3.70;99.90
8914;DHT22;4492;48.736;9.092;2023-02-12T02:04:24;3.70;99.90
8914;DHT22;4492;48.736;9.092;2023-02-12T02:07:02;3.70;99.90
8914;DHT22;4492;48.736;9.092;2023-02-12T02:09:30;3.70;99.90
8914;DHT22;4492;48.736;9.092;2023-02-12T02:11:57;3.70;99.90
8914;DHT22;4492;48.736;9.092;2023-02-12T02:14:42;3.70;99.90
8914;DHT22;4492;48.736;9.092;2023-02-12T02:26:24;3.80;99.90
8914;DHT22;4492;48.736;9.092;2023-02-12T02:31:52;3.80;99.90
8914;DHT22;4492;48.736;9.092;2023-02-12T02:34:47;3.80;99.90
8914;DHT22;4492;48.736;9.092;2023-02-12T02:37:45;3.80;99.90
8914;DHT22;4492;48.736;9.092;2023-02-12T02:40:17;3.80;99.90
8914;DHT22;4492;48.736;9.092;2023-02-12T02:42:53;3.80;99.90
8914;DHT22;4492;48.736;9.092;2023-02-12T02:50:38;3.80;99.90
8914;DHT22;4492;48.736;9.092;2023-02-12T02:53:12;3.80;99.90
8914;DHT22;4492;48.736;9.092;2023-02-12T02:55:44;3.80;99.90
8914;DHT22;4492;48.736;9.092;2023-02-12T02:58:18;3.80;99.90
8914;DHT22;4492;48.736;9.092;2023-02-12T03:01:00;3.80;99.90
8914;DHT22;4492;48.736;9.092;2023-02-12T03:03:58;3.80;99.90
8914;DHT22;4492;48.736;9.092;2023-02-12T03:06:33;3.90;99.90
8914;DHT22;4492;48.736;9.092;2023-02-12T03:09:03;3.90;99.90
8914;DHT22;4492;48.736;9.092;2023-02-12T03:11:32;3.80;99.90
8914;DHT22;4492;48.736;9.092;2023-02-12T03:14:10;3.80;99.90
8914;DHT22;4492;48.736;9.092;2023-02-12T03:16:43;3.70;99.90
8914;DHT22;4492;48.736;9.092;2023-02-12T03:19:20;3.60;99.90
8914;DHT22;4492;48.736;9.092;2023-02-12T03:22:05;3.60;99.90
8914;DHT22;4492;48.736;9.092;2023-02-12T03:24:53;3.50;99.90
8914;DHT22;4492;48.736;9.092;2023-02-12T03:27:38;3.50;99.90
8914;DHT22;4492;48.736;9.092;2023-02-12T03:30:06;3.50;99.90
8914;DHT22;4492;48.736;9.092;2023-02-12T03:35:31;3.50;99.90
8914;DHT22;4492;48.736;9.092;2023-02-12T03:38:03;3.50;99.90
8914;DHT22;4492;48.736;9.092;2023-02-12T03:40:37;3.50;99.90
8914;DHT22;4492;48.736;9.092;2023-02-12T03:43:24;3.40;99.90
8914;DHT22;4492;48.736;9.092;2023-02-12T03:45:59;3.40;99.90
8914;DHT22;4492;48.736;9.092;2023-02-12T03:48:40;3.40;99.90
8914;DHT22;4492;48.736;9.092;2023-02-12T03:51:23;3.40;99.90
8914;DHT22;4492;48.736;9.092;2023-02-12T03:53:49;3.40;99.90
8914;DHT22;4492;48.736;9.092;2023-02-12T03:56:26;3.40;99.90
8914;DHT22;4492;48.736;9.092;2023-02-12T03:58:52;3.40;99.90
8914;DHT22;4492;48.736;9.092;2023-02-12T04:01:18;3.40;99.90
8914;DHT22;4492;48.736;9.092;2023-02-12T04:03:44;3.40;99.90
8914;DHT22;4492;48.736;9.092;2023-02-12T04:06:26;3.40;99.90
8914;DHT22;4492;48.736;9.092;2023-02-12T04:08:56;3.40;99.90
8914;DHT22;4492;48.736;9.092;2023-02-12T04:14:12;3.40;99.90
8914;DHT22;4492;48.736;9.092;2023-02-12T04:19:39;3.40;99.90
8914;DHT22;4492;48.736;9.092;2023-02-12T04:22:26;3.40;99.90
8914;DHT22;4492;48.736;9.092;2023-02-12T04:25:06;3.40;99.90
8914;DHT22;4492;48.736;9.092;2023-02-12T04:27:52;3.40;99.90
8914;DHT22;4492;48.736;9.092;2023-02-12T04:30:54;3.50;99.90
8914;DHT22;4492;48.736;9.092;2023-02-12T04:33:22;3.50;99.90
8914;DHT22;4492;48.736;9.092;2023-02-12T04:36:02;3.50;99.90
8914;DHT22;4492;48.736;9.092;2023-02-12T04:38:40;3.40;99.90
8914;DHT22;4492;48.736;9.092;2023-02-12T04:41:08;3.40;99.90
8914;DHT22;4492;48.736;9.092;2023-02-12T04:43:36;3.40;99.90
8914;DHT22;4492;48.736;9.092;2023-02-12T04:46:04;3.40;99.90
8914;DHT22;4492;48.736;9.092;2023-02-12T04:48:30;3.50;99.90
8914;DHT22;4492;48.736;9.092;2023-02-12T04:50:56;3.40;99.90
8914;DHT22;4492;48.736;9.092;2023-02-12T04:53:21;3.40;99.90
8914;DHT22;4492;48.736;9.092;2023-02-12T04:55:47;3.40;99.90
8914;DHT22;4492;48.736;9.092;2023-02-12T04:58:15;3.40;99.90
8914;DHT22;4492;48.736;9.092;2023-02-12T05:00:40;3.40;99.90
8914;DHT22;4492;48.736;9.092;2023-02-12T05:03:06;3.40;99.90
8914;DHT22;4492;48.736;9.092;2023-02-12T05:05:32;3.40;99.90
8914;DHT22;4492;48.736;9.092;2023-02-12T05:07:57;3.40;99.90
8914;DHT22;4492;48.736;9.092;2023-02-12T05:10:23;3.40;99.90
8914;DHT22;4492;48.736;9.092;2023-02-12T05:12:51;3.40;99.90
8914;DHT22;4492;48.736;9.092;2023-02-12T05:15:17;3.40;99.90
8914;DHT22;4492;48.736;9.092;2023-02-12T05:17:42;3.40;99.90
8914;DHT22;4492;48.736;9.092;2023-02-12T05:20:10;3.40;99.90
8914;DHT22;4492;48.736;9.092;2023-02-12T05:22:36;3.40;99.90
8914;DHT22;4492;48.736;9.092;2023-02-12T05:25:01;3.50;99.90
8914;DHT22;4492;48.736;9.092;2023-02-12T05:27:27;3.50;99.90
8914;DHT22;4492;48.736;9.092;2023-02-12T05:29:53;3.40;99.90
8914;DHT22;4492;48.736;9.092;2023-02-12T05:32:18;3.50;99.90
8914;DHT22;4492;48.736;9.092;2023-02-12T05:34:44;3.50;99.90
8914;DHT22;4492;48.736;9.092;2023-02-12T05:37:09;3.50;99.90
8914;DHT22;4492;48.736;9.092;2023-02-12T05:39:34;3.50;99.90
8914;DHT22;4492;48.736;9.092;2023-02-12T05:42:00;3.50;99.90
8914;DHT22;4492;48.736;9.092;2023-02-12T05:44:25;3.40;99.90
8914;DHT22;4492;48.736;9.092;2023-02-12T05:46:51;3.40;99.90
8914;DHT22;4492;48.736;9.092;2023-02-12T05:49:16;3.50;99.90
8914;DHT22;4492;48.736;9.092;2023-02-12T05:51:42;3.50;99.90
8914;DHT22;4492;48.736;9.092;2023-02-12T05:54:09;3.50;99.90
8914;DHT22;4492;48.736;9.092;2023-02-12T05:56:43;3.50;99.90
8914;DHT22;4492;48.736;9.092;2023-02-12T05:59:18;3.50;99.90
8914;DHT22;4492;48.736;9.092;2023-02-12T06:01:44;3.40;99.90
8914;DHT22;4492;48.736;9.092;2023-02-12T06:04:30;3.50;99.90
8914;DHT22;4492;48.736;9.092;2023-02-12T06:06:56;3.50;99.90
8914;DHT22;4492;48.736;9.092;2023-02-12T06:09:22;3.50;99.90
8914;DHT22;4492;48.736;9.092;2023-02-12T06:11:48;3.40;99.90
8914;DHT22;4492;48.736;9.092;2023-02-12T06:14:15;3.40;99.90
8914;DHT22;4492;48.736;9.092;2023-02-12T06:16:44;3.40;99.90
8914;DHT22;4492;48.736;9.092;2023-02-12T06:19:11;3.40;99.90
8914;DHT22;4492;48.736;9.092;2023-02-12T06:21:37;3.40;99.90
8914;DHT22;4492;48.736;9.092;2023-02-12T06:24:02;3.40;99.90
8914;DHT22;4492;48.736;9.092;2023-02-12T06:26:29;3.40;99.90
8914;DHT22;4492;48.736;9.092;2023-02-12T06:28:54;3.40;99.90
8914;DHT22;4492;48.736;9.092;2023-02-12T06:31:28;3.40;99.90
8914;DHT22;4492;48.736;9.092;2023-02-12T06:33:59;3.40;99.90
8914;DHT22;4492;48.736;9.092;2023-02-12T06:36:25;3.40;99.90
8914;DHT22;4492;48.736;9.092;2023-02-12T06:38:51;3.40;99.90
8914;DHT22;4492;48.736;9.092;2023-02-12T06:41:17;3.40;99.90
8914;DHT22;4492;48.736;9.092;2023-02-12T06:43:42;3.40;99.90
8914;DHT22;4492;48.736;9.092;2023-02-12T06:46:08;3.40;99.90
8914;DHT22;4492;48.736;9.092;2023-02-12T06:48:34;3.40;99.90
8914;DHT22;4492;48.736;9.092;2023-02-12T06:51:09;3.40;99.90
8914;DHT22;4492;48.736;9.092;2023-02-12T06:53:36;3.50;99.90
8914;DHT22;4492;48.736;9.092;2023-02-12T06:56:03;3.50;99.90
8914;DHT22;4492;48.736;9.092;2023-02-12T06:58:29;3.50;99.90
8914;DHT22;4492;48.736;9.092;2023-02-12T07:00:55;3.50;99.90
8914;DHT22;4492;48.736;9.092;2023-02-12T07:03:21;3.50;99.90
8914;DHT22;4492;48.736;9.092;2023-02-12T07:05:46;3.60;99.90
8914;DHT22;4492;48.736;9.092;2023-02-12T07:08:13;3.60;99.90
8914;DHT22;4492;48.736;9.092;2023-02-12T07:10:38;3.70;99.90
8914;DHT22;4492;48.736;9.092;2023-02-12T07:13:04;3.70;99.90
8914;DHT22;4492;48.736;9.092;2023-02-12T07:15:30;3.70;99.90
8914;DHT22;4492;48.736;9.092;2023-02-12T07:17:55;3.80;99.90
8914;DHT22;4492;48.736;9.092;2023-02-12T07:20:21;3.80;99.90
8914;DHT22;4492;48.736;9.092;2023-02-12T07:22:46;3.90;99.90
8914;DHT22;4492;48.736;9.092;2023-02-12T07:25:12;3.90;99.90
8914;DHT22;4492;48.736;9.092;2023-02-12T07:27:37;4.00;99.90
8914;DHT22;4492;48.736;9.092;2023-02-12T07:30:05;4.00;99.90
8914;DHT22;4492;48.736;9.092;2023-02-12T07:32:32;4.10;99.90
8914;DHT22;4492;48.736;9.092;2023-02-12T07:34:58;4.10;99.90
8914;DHT22;4492;48.736;9.092;2023-02-12T07:37:24;4.20;99.90
8914;DHT22;4492;48.736;9.092;2023-02-12T07:39:49;4.20;99.90
8914;DHT22;4492;48.736;9.092;2023-02-12T07:42:16;4.30;99.90
8914;DHT22;4492;48.736;9.092;2023-02-12T07:44:42;4.30;99.90
8914;DHT22;4492;48.736;9.092;2023-02-12T07:47:07;4.30;99.90
8914;DHT22;4492;48.736;9.092;2023-02-12T07:49:33;4.40;99.90
8914;DHT22;4492;48.736;9.092;2023-02-12T07:51:58;4.40;99.90
8914;DHT22;4492;48.736;9.092;2023-02-12T07:54:24;4.40;99.90
8914;DHT22;4492;48.736;9.092;2023-02-12T07:56:50;4.40;99.90
8914;DHT22;4492;48.736;9.092;2023-02-12T07:59:17;4.50;99.90
8914;DHT22;4492;48.736;9.092;2023-02-12T08:01:51;4.50;99.90
8914;DHT22;4492;48.736;9.092;2023-02-12T08:04:19;4.60;99.90
8914;DHT22;4492;48.736;9.092;2023-02-12T08:06:47;4.60;99.90
8914;DHT22;4492;48.736;9.092;2023-02-12T08:09:18;4.60;99.90
8914;DHT22;4492;48.736;9.092;2023-02-12T08:11:44;4.70;99.90
8914;DHT22;4492;48.736;9.092;2023-02-12T08:14:12;4.80;99.90
8914;DHT22;4492;48.736;9.092;2023-02-12T08:16:40;4.80;99.90
8914;DHT22;4492;48.736;9.092;2023-02-12T08:19:06;4.90;99.90
8914;DHT22;4492;48.736;9.092;2023-02-12T08:21:32;4.90;99.90
8914;DHT22;4492;48.736;9.092;2023-02-12T08:23:57;5.00;99.90
8914;DHT22;4492;48.736;9.092;2023-02-12T08:26:25;5.00;99.90
8914;DHT22;4492;48.736;9.092;2023-02-12T08:29:01;5.10;99.90
8914;DHT22;4492;48.736;9.092;2023-02-12T08:31:30;5.10;99.90
8914;DHT22;4492;48.736;9.092;2023-02-12T08:33:56;5.10;99.90
8914;DHT22;4492;48.736;9.092;2023-02-12T08:36:24;5.20;99.90
8914;DHT22;4492;48.736;9.092;2023-02-12T08:38:50;5.30;99.90
8914;DHT22;4492;48.736;9.092;2023-02-12T08:41:36;5.40;99.90
8914;DHT22;4492;48.736;9.092;2023-02-12T08:44:03;5.40;99.90
8914;DHT22;4492;48.736;9.092;2023-02-12T08:46:31;5.50;99.90
8914;DHT22;4492;48.736;9.092;2023-02-12T08:48:59;5.50;99.90
8914;DHT22;4492;48.736;9.092;2023-02-12T08:51:27;5.50;99.90
8914;DHT22;4492;48.736;9.092;2023-02-12T08:53:56;5.60;99.90
8914;DHT22;4492;48.736;9.092;2023-02-12T08:56:23;5.60;99.90
8914;DHT22;4492;48.736;9.092;2023-02-12T08:58:49;5.60;99.90
8914;DHT22;4492;48.736;9.092;2023-02-12T09:01:19;5.60;99.90
8914;DHT22;4492;48.736;9.092;2023-02-12T09:03:46;5.60;99.90
8914;DHT22;4492;48.736;9.092;2023-02-12T09:06:13;5.60;99.90
8914;DHT22;4492;48.736;9.092;2023-02-12T09:08:39;5.60;99.90
8914;DHT22;4492;48.736;9.092;2023-02-12T09:11:10;5.50;99.90
8914;DHT22;4492;48.736;9.092;2023-02-12T09:13:37;5.50;99.90
8914;DHT22;4492;48.736;9.092;2023-02-12T09:16:05;5.60;99.90
8914;DHT22;4492;48.736;9.092;2023-02-12T09:18:31;5.80;99.90
8914;DHT22;4492;48.736;9.092;2023-02-12T09:21:04;5.90;99.90
8914;DHT22;4492;48.736;9.092;2023-02-12T09:23:31;6.00;99.90
8914;DHT22;4492;48.736;9.092;2023-02-12T09:25:57;6.00;99.90
8914;DHT22;4492;48.736;9.092;2023-02-12T09:28:23;6.00;99.90
8914;DHT22;4492;48.736;9.092;2023-02-12T09:30:49;6.10;99.90
8914;DHT22;4492;48.736;9.092;2023-02-12T09:33:14;6.00;99.90
8914;DHT22;4492;48.736;9.092;2023-02-12T09:35:40;6.00;99.90
8914;DHT22;4492;48.736;9.092;2023-02-12T09:38:06;6.20;99.90
8914;DHT22;4492;48.736;9.092;2023-02-12T09:43:48;6.50;99.90
8914;DHT22;4492;48.736;9.092;2023-02-12T09:46:38;6.40;99.90
8914;DHT22;4492;48.736;9.092;2023-02-12T09:49:10;6.50;99.90
8914;DHT22;4492;48.736;9.092;2023-02-12T09:51:43;6.60;99.90
8914;DHT22;4492;48.736;9.092;2023-02-12T09:54:15;6.70;99.90
8914;DHT22;4492;48.736;9.092;2023-02-12T09:56:45;6.50;99.90
8914;DHT22;4492;48.736;9.092;2023-02-12T09:59:19;6.60;99.90
8914;DHT22;4492;48.736;9.092;2023-02-12T10:01:46;6.50;99.90
8914;DHT22;4492;48.736;9.092;2023-02-12T10:04:12;6.50;99.90
8914;DHT22;4492;48.736;9.092;2023-02-12T10:06:47;6.70;99.90
8914;DHT22;4492;48.736;9.092;2023-02-12T10:09:27;6.90;99.90
8914;DHT22;4492;48.736;9.092;2023-02-12T10:17:39;7.40;99.90
8914;DHT22;4492;48.736;9.092;2023-02-12T10:22:42;7.40;99.90
8914;DHT22;4492;48.736;9.092;2023-02-12T10:25:23;7.10;99.90
8914;DHT22;4492;48.736;9.092;2023-02-12T10:27:53;7.10;99.90
8914;DHT22;4492;48.736;9.092;2023-02-12T10:30:38;7.10;99.90
8914;DHT22;4492;48.736;9.092;2023-02-12T10:33:09;7.10;99.90
8914;DHT22;4492;48.736;9.092;2023-02-12T10:35:43;7.10;99.90
8914;DHT22;4492;48.736;9.092;2023-02-12T10:38:28;7.20;99.90
8914;DHT22;4492;48.736;9.092;2023-02-12T10:40:55;7.00;99.90
8914;DHT22;4492;48.736;9.092;2023-02-12T10:43:23;6.90;99.90
8914;DHT22;4492;48.736;9.092;2023-02-12T10:45:49;6.80;99.90
8914;DHT22;4492;48.736;9.092;2023-02-12T10:53:33;7.10;99.90
8914;DHT22;4492;48.736;9.092;2023-02-12T11:01:32;7.10;99.90
8914;DHT22;4492;48.736;9.092;2023-02-12T11:04:16;7.30;99.90
8914;DHT22;4492;48.736;9.092;2023-02-12T11:06:57;7.40;99.90
8914;DHT22;4492;48.736;9.092;2023-02-12T11:09:35;7.40;99.90
8914;DHT22;4492;48.736;9.092;2023-02-12T11:12:02;7.50;99.90
8914;DHT22;4492;48.736;9.092;2023-02-12T11:14:27;7.70;99.90
8914;DHT22;4492;48.736;9.092;2023-02-12T11:16:58;7.70;99.90
8914;DHT22;4492;48.736;9.092;2023-02-12T11:19:31;7.70;99.90
8914;DHT22;4492;48.736;9.092;2023-02-12T11:22:10;7.50;99.90
8914;DHT22;4492;48.736;9.092;2023-02-12T11:24:43;7.40;99.90
8914;DHT22;4492;48.736;9.092;2023-02-12T11:29:41;7.40;99.90
8914;DHT22;4492;48.736;9.092;2023-02-12T11:32:14;7.50;99.90
8914;DHT22;4492;48.736;9.092;2023-02-12T11:34:40;7.70;99.90
8914;DHT22;4492;48.736;9.092;2023-02-12T11:37:14;7.90;99.90
8914;DHT22;4492;48.736;9.092;2023-02-12T11:39:45;8.10;99.90
8914;DHT22;4492;48.736;9.092;2023-02-12T11:42:17;8.30;99.90
8914;DHT22;4492;48.736;9.092;2023-02-12T11:44:50;8.00;99.90
8914;DHT22;4492;48.736;9.092;2023-02-12T11:47:24;8.00;99.90
8914;DHT22;4492;48.736;9.092;2023-02-12T11:50:26;8.00;99.90
8914;DHT22;4492;48.736;9.092;2023-02-12T11:52:57;8.10;99.90
8914;DHT22;4492;48.736;9.092;2023-02-12T11:55:31;8.20;99.90
8914;DHT22;4492;48.736;9.092;2023-02-12T12:00:32;7.90;99.90
8914;DHT22;4492;48.736;9.092;2023-02-12T12:03:10;8.10;99.90
8914;DHT22;4492;48.736;9.092;2023-02-12T12:05:43;8.00;99.90
8914;DHT22;4492;48.736;9.092;2023-02-12T12:08:26;8.00;99.90
8914;DHT22;4492;48.736;9.092;2023-02-12T12:11:14;8.30;99.90
8914;DHT22;4492;48.736;9.092;2023-02-12T12:14:03;8.20;99.90
8914;DHT22;4492;48.736;9.092;2023-02-12T12:16:37;8.30;99.90
8914;DHT22;4492;48.736;9.092;2023-02-12T12:19:28;8.30;99.90
8914;DHT22;4492;48.736;9.092;2023-02-12T12:28:28;8.50;99.90
8914;DHT22;4492;48.736;9.092;2023-02-12T12:33:39;8.50;99.90
8914;DHT22;4492;48.736;9.092;2023-02-12T12:51:24;8.80;99.90
8914;DHT22;4492;48.736;9.092;2023-02-12T12:59:29;8.60;99.90
8914;DHT22;4492;48.736;9.092;2023-02-12T13:12:29;8.20;99.90
8914;DHT22;4492;48.736;9.092;2023-02-12T13:15:18;8.10;99.90
8914;DHT22;4492;48.736;9.092;2023-02-12T13:23:32;8.20;99.90
8914;DHT22;4492;48.736;9.092;2023-02-12T13:26:27;8.30;99.90
8914;DHT22;4492;48.736;9.092;2023-02-12T13:29:10;8.40;99.90
8914;DHT22;4492;48.736;9.092;2023-02-12T13:31:44;8.50;99.90
8914;DHT22;4492;48.736;9.092;2023-02-12T13:34:14;8.50;99.90
8914;DHT22;4492;48.736;9.092;2023-02-12T13:36:40;8.50;99.90
8914;DHT22;4492;48.736;9.092;2023-02-12T13:40:01;8.60;99.90
8914;DHT22;4492;48.736;9.092;2023-02-12T13:45:29;8.30;99.90
8914;DHT22;4492;48.736;9.092;2023-02-12T13:48:19;8.30;99.90
8914;DHT22;4492;48.736;9.092;2023-02-12T13:53:36;8.10;99.90
8914;DHT22;4492;48.736;9.092;2023-02-12T13:59:02;8.00;99.90
8914;DHT22;4492;48.736;9.092;2023-02-12T14:01:37;7.90;99.90
8914;DHT22;4492;48.736;9.092;2023-02-12T14:05:15;7.90;99.90
8914;DHT22;4492;48.736;9.092;2023-02-12T14:07:24;7.90;99.90
8914;DHT22;4492;48.736;9.092;2023-02-12T14:10:05;7.90;99.90
8914;DHT22;4492;48.736;9.092;2023-02-12T14:12:34;7.90;99.90
8914;DHT22;4492;48.736;9.092;2023-02-12T14:15:49;7.90;99.90
8914;DHT22;4492;48.736;9.092;2023-02-12T14:18:05;7.80;99.90
8914;DHT22;4492;48.736;9.092;2023-02-12T14:20:35;7.70;99.90
8914;DHT22;4492;48.736;9.092;2023-02-12T14:23:25;7.70;99.90
8914;DHT22;4492;48.736;9.092;2023-02-12T14:26:20;7.70;99.90
8914;DHT22;4492;48.736;9.092;2023-02-12T14:28:58;7.70;99.90
8914;DHT22;4492;48.736;9.092;2023-02-12T14:31:37;7.70;99.90
8914;DHT22;4492;48.736;9.092;2023-02-12T14:39:01;7.60;99.90
8914;DHT22;4492;48.736;9.092;2023-02-12T14:41:30;7.60;99.90
8914;DHT22;4492;48.736;9.092;2023-02-12T14:46:50;7.60;99.90
8914;DHT22;4492;48.736;9.092;2023-02-12T14:49:35;7.60;99.90
8914;DHT22;4492;48.736;9.092;2023-02-12T14:54:46;7.60;99.90
8914;DHT22;4492;48.736;9.092;2023-02-12T14:57:34;7.60;99.90
8914;DHT22;4492;48.736;9.092;2023-02-12T15:06:13;7.60;99.90
8914;DHT22;4492;48.736;9.092;2023-02-12T15:11:37;7.60;99.90
8914;DHT22;4492;48.736;9.092;2023-02-12T15:17:18;7.50;99.90
8914;DHT22;4492;48.736;9.092;2023-02-12T15:22:28;7.50;99.90
8914;DHT22;4492;48.736;9.092;2023-02-12T15:27:45;7.40;99.90
8914;DHT22;4492;48.736;9.092;2023-02-12T15:30:19;7.30;99.90
8914;DHT22;4492;48.736;9.092;2023-02-12T15:32:46;7.30;99.90
8914;DHT22;4492;48.736;9.092;2023-02-12T15:35:22;7.20;99.90
8914;DHT22;4492;48.736;9.092;2023-02-12T15:37:49;7.20;99.90
8914;DHT22;4492;48.736;9.092;2023-02-12T15:40:15;7.10;99.90
8914;DHT22;4492;48.736;9.092;2023-02-12T15:42:54;7.10;99.90
8914;DHT22;4492;48.736;9.092;2023-02-12T15:45:23;7.00;99.90
8914;DHT22;4492;48.736;9.092;2023-02-12T15:50:35;6.90;99.90
8914;DHT22;4492;48.736;9.092;2023-02-12T15:53:09;6.90;99.90
8914;DHT22;4492;48.736;9.092;2023-02-12T15:55:37;6.90;99.90
8914;DHT22;4492;48.736;9.092;2023-02-12T15:58:04;6.80;99.90
8914;DHT22;4492;48.736;9.092;2023-02-12T16:00:41;6.70;99.90
8914;DHT22;4492;48.736;9.092;2023-02-12T16:03:20;6.60;99.90
8914;DHT22;4492;48.736;9.092;2023-02-12T16:05:47;6.50;99.90
8914;DHT22;4492;48.736;9.092;2023-02-12T16:08:15;6.40;99.90
8914;DHT22;4492;48.736;9.092;2023-02-12T16:10:43;6.30;99.90
8914;DHT22;4492;48.736;9.092;2023-02-12T16:13:15;6.30;99.90
8914;DHT22;4492;48.736;9.092;2023-02-12T16:15:42;6.10;99.90
8914;DHT22;4492;48.736;9.092;2023-02-12T16:18:22;6.10;99.90
8914;DHT22;4492;48.736;9.092;2023-02-12T16:20:48;6.00;99.90
8914;DHT22;4492;48.736;9.092;2023-02-12T16:23:14;5.90;99.90
8914;DHT22;4492;48.736;9.092;2023-02-12T16:25:42;5.70;99.90
8914;DHT22;4492;48.736;9.092;2023-02-12T16:28:16;5.60;99.90
8914;DHT22;4492;48.736;9.092;2023-02-12T16:30:46;5.50;99.90
8914;DHT22;4492;48.736;9.092;2023-02-12T16:36:02;5.20;99.90
8914;DHT22;4492;48.736;9.092;2023-02-12T16:38:54;5.10;99.90
8914;DHT22;4492;48.736;9.092;2023-02-12T16:41:24;5.00;99.90
8914;DHT22;4492;48.736;9.092;2023-02-12T16:46:33;4.80;99.90
8914;DHT22;4492;48.736;9.092;2023-02-12T16:49:17;4.70;99.90
8914;DHT22;4492;48.736;9.092;2023-02-12T16:51:43;4.70;99.90
8914;DHT22;4492;48.736;9.092;2023-02-12T16:54:34;4.70;99.90
8914;DHT22;4492;48.736;9.092;2023-02-12T16:57:00;4.70;99.90
8914;DHT22;4492;48.736;9.092;2023-02-12T16:59:26;4.60;99.90
8914;DHT22;4492;48.736;9.092;2023-02-12T17:02:05;4.60;99.90
8914;DHT22;4492;48.736;9.092;2023-02-12T17:04:33;4.50;99.90
8914;DHT22;4492;48.736;9.092;2023-02-12T17:06:59;4.50;99.90
8914;DHT22;4492;48.736;9.092;2023-02-12T17:09:25;4.40;99.90
8914;DHT22;4492;48.736;9.092;2023-02-12T17:11:50;4.40;99.90
8914;DHT22;4492;48.736;9.092;2023-02-12T17:14:18;4.40;99.90
8914;DHT22;4492;48.736;9.092;2023-02-12T17:16:44;4.30;99.90
8914;DHT22;4492;48.736;9.092;2023-02-12T17:19:10;4.20;99.90
8914;DHT22;4492;48.736;9.092;2023-02-12T17:21:38;4.20;99.90
8914;DHT22;4492;48.736;9.092;2023-02-12T17:24:08;4.10;99.90
8914;DHT22;4492;48.736;9.092;2023-02-12T17:26:38;4.10;99.90
8914;DHT22;4492;48.736;9.092;2023-02-12T17:29:03;4.00;99.90
8914;DHT22;4492;48.736;9.092;2023-02-12T17:31:31;4.00;99.90
8914;DHT22;4492;48.736;9.092;2023-02-12T17:33:56;3.90;99.90
8914;DHT22;4492;48.736;9.092;2023-02-12T17:36:22;3.90;99.90
8914;DHT22;4492;48.736;9.092;2023-02-12T17:38:48;3.80;99.90
8914;DHT22;4492;48.736;9.092;2023-02-12T17:41:14;3.80;99.90
8914;DHT22;4492;48.736;9.092;2023-02-12T17:43:40;3.80;99.90
8914;DHT22;4492;48.736;9.092;2023-02-12T17:46:08;3.70;99.90
8914;DHT22;4492;48.736;9.092;2023-02-12T17:48:35;3.60;99.90
8914;DHT22;4492;48.736;9.092;2023-02-12T17:51:00;3.50;99.90
8914;DHT22;4492;48.736;9.092;2023-02-12T17:53:26;3.40;99.90
8914;DHT22;4492;48.736;9.092;2023-02-12T17:55:51;3.40;99.90
8914;DHT22;4492;48.736;9.092;2023-02-12T17:58:17;3.30;99.90
8914;DHT22;4492;48.736;9.092;2023-02-12T18:00:42;3.20;99.90
8914;DHT22;4492;48.736;9.092;2023-02-12T18:03:08;3.10;99.90
8914;DHT22;4492;48.736;9.092;2023-02-12T18:05:39;3.10;99.90
8914;DHT22;4492;48.736;9.092;2023-02-12T18:08:05;3.10;99.90
8914;DHT22;4492;48.736;9.092;2023-02-12T18:10:31;3.10;99.90
8914;DHT22;4492;48.736;9.092;2023-02-12T18:12:56;3.00;99.90
8914;DHT22;4492;48.736;9.092;2023-02-12T18:15:22;3.00;99.90
8914;DHT22;4492;48.736;9.092;2023-02-12T18:17:47;3.00;99.90
8914;DHT22;4492;48.736;9.092;2023-02-12T18:20:13;3.00;99.90
8914;DHT22;4492;48.736;9.092;2023-02-12T18:22:38;3.00;99.90
8914;DHT22;4492;48.736;9.092;2023-02-12T18:25:04;2.90;99.90
8914;DHT22;4492;48.736;9.092;2023-02-12T18:27:30;2.90;99.90
8914;DHT22;4492;48.736;9.092;2023-02-12T18:29:56;2.90;99.90
8914;DHT22;4492;48.736;9.092;2023-02-12T18:32:21;2.90;99.90
8914;DHT22;4492;48.736;9.092;2023-02-12T18:34:48;2.90;99.90
8914;DHT22;4492;48.736;9.092;2023-02-12T18:37:13;2.90;99.90
8914;DHT22;4492;48.736;9.092;2023-02-12T18:39:39;2.90;99.90
8914;DHT22;4492;48.736;9.092;2023-02-12T18:42:05;2.90;99.90
8914;DHT22;4492;48.736;9.092;2023-02-12T18:44:31;2.90;99.90
8914;DHT22;4492;48.736;9.092;2023-02-12T18:46:56;3.00;99.90
8914;DHT22;4492;48.736;9.092;2023-02-12T18:49:27;3.10;99.90
8914;DHT22;4492;48.736;9.092;2023-02-12T18:51:53;3.10;99.90
8914;DHT22;4492;48.736;9.092;2023-02-12T18:54:19;3.20;99.90
8914;DHT22;4492;48.736;9.092;2023-02-12T18:56:45;3.20;99.90
8914;DHT22;4492;48.736;9.092;2023-02-12T18:59:13;3.20;99.90
8914;DHT22;4492;48.736;9.092;2023-02-12T19:01:40;3.10;99.90
8914;DHT22;4492;48.736;9.092;2023-02-12T19:04:08;3.10;99.90
8914;DHT22;4492;48.736;9.092;2023-02-12T19:06:38;3.00;99.90